sensor_id;sensor_type;location;lat;lon;timestamp;pressure;altitude;pressure_sealevel;temperature;humidity
63405;BME280;49541;57.840;12.306;2022-10-17T00:02:37;100836.88;;;11.33;70.80
63405;BME280;49541;57.840;12.306;2022-10-17T00:07:37;100858.47;;;11.09;71.47
63405;BME280;49541;57.840;12.306;2022-10-17T00:12:38;100860.47;;;10.75;72.01
63405;BME280;49541;57.840;12.306;2022-10-17T00:17:38;100871.38;;;10.72;72.44
63405;BME280;49541;57.840;12.306;2022-10-17T00:22:38;100874.50;;;10.77;72.23
63405;BME280;49541;57.840;12.306;2022-10-17T00:27:39;100880.31;;;10.71;72.49
63405;BME280;49541;57.840;12.306;2022-10-17T00:32:40;100875.94;;;10.81;71.86
63405;BME280;49541;57.840;12.306;2022-10-17T00:37:41;100893.06;;;10.99;70.42
63405;BME280;49541;57.840;12.306;2022-10-17T00:42:41;100902.81;;;11.10;70.02
63405;BME280;49541;57.840;12.306;2022-10-17T00:47:41;100904.84;;;10.53;72.12
63405;BME280;49541;57.840;12.306;2022-10-17T00:52:44;100909.16;;;10.65;72.15
63405;BME280;49541;57.840;12.306;2022-10-17T00:57:45;100916.50;;;10.73;72.00
63405;BME280;49541;57.840;12.306;2022-10-17T01:02:47;100923.50;;;11.39;69.27
63405;BME280;49541;57.840;12.306;2022-10-17T01:07:48;100932.16;;;10.99;69.13
63405;BME280;49541;57.840;12.306;2022-10-17T01:17:59;100939.94;;;10.58;70.62
63405;BME280;49541;57.840;12.306;2022-10-17T01:28:13;100938.91;;;10.82;69.62
63405;BME280;49541;57.840;12.306;2022-10-17T01:33:23;100936.75;;;10.64;70.41
63405;BME280;49541;57.840;12.306;2022-10-17T01:38:27;100939.41;;;10.64;70.07
63405;BME280;49541;57.840;12.306;2022-10-17T01:43:39;100930.28;;;10.01;72.40
63405;BME280;49541;57.840;12.306;2022-10-17T01:48:41;100932.69;;;9.93;72.30
63405;BME280;49541;57.840;12.306;2022-10-17T01:53:48;100930.28;;;9.90;73.47
63405;BME280;49541;57.840;12.306;2022-10-17T01:58:52;100938.28;;;9.90;73.58
63405;BME280;49541;57.840;12.306;2022-10-17T02:03:56;100939.84;;;9.92;74.47
63405;BME280;49541;57.840;12.306;2022-10-17T02:08:57;100952.81;;;9.50;75.71
63405;BME280;49541;57.840;12.306;2022-10-17T02:24:32;100960.22;;;9.58;75.02
63405;BME280;49541;57.840;12.306;2022-10-17T02:35:02;100972.44;;;9.72;76.05
63405;BME280;49541;57.840;12.306;2022-10-17T02:40:04;100972.91;;;9.66;76.79
63405;BME280;49541;57.840;12.306;2022-10-17T02:45:07;100972.78;;;9.56;76.28
63405;BME280;49541;57.840;12.306;2022-10-17T02:50:07;100989.66;;;9.43;77.34
63405;BME280;49541;57.840;12.306;2022-10-17T02:55:13;100991.13;;;9.48;77.63
63405;BME280;49541;57.840;12.306;2022-10-17T03:00:15;100996.47;;;9.59;76.94
63405;BME280;49541;57.840;12.306;2022-10-17T03:05:18;101005.22;;;9.83;75.05
63405;BME280;49541;57.840;12.306;2022-10-17T03:10:19;101014.16;;;9.82;74.27
63405;BME280;49541;57.840;12.306;2022-10-17T03:15:19;101021.00;;;10.32;71.84
63405;BME280;49541;57.840;12.306;2022-10-17T03:20:19;101031.56;;;9.75;73.15
63405;BME280;49541;57.840;12.306;2022-10-17T03:25:20;101030.59;;;9.41;74.08
63405;BME280;49541;57.840;12.306;2022-10-17T03:30:20;101045.81;;;9.39;73.98
63405;BME280;49541;57.840;12.306;2022-10-17T03:35:20;101060.28;;;9.35;73.49
63405;BME280;49541;57.840;12.306;2022-10-17T03:40:20;101059.72;;;9.42;73.24
63405;BME280;49541;57.840;12.306;2022-10-17T03:45:21;101051.72;;;9.67;72.38
63405;BME280;49541;57.840;12.306;2022-10-17T03:50:21;101046.88;;;9.72;71.19
63405;BME280;49541;57.840;12.306;2022-10-17T03:55:21;101048.81;;;9.34;72.26
63405;BME280;49541;57.840;12.306;2022-10-17T04:00:21;101042.09;;;9.17;73.24
63405;BME280;49541;57.840;12.306;2022-10-17T04:05:22;101036.72;;;9.30;75.77
63405;BME280;49541;57.840;12.306;2022-10-17T04:10:22;101047.91;;;9.47;75.64
63405;BME280;49541;57.840;12.306;2022-10-17T04:15:22;101042.72;;;9.92;75.63
63405;BME280;49541;57.840;12.306;2022-10-17T04:20:22;101053.28;;;10.83;71.68
63405;BME280;49541;57.840;12.306;2022-10-17T04:25:22;101054.84;;;9.60;75.18
63405;BME280;49541;57.840;12.306;2022-10-17T04:30:23;101068.16;;;9.36;78.46
63405;BME280;49541;57.840;12.306;2022-10-17T04:35:23;101063.72;;;9.72;78.32
63405;BME280;49541;57.840;12.306;2022-10-17T04:40:23;101077.47;;;9.66;77.66
63405;BME280;49541;57.840;12.306;2022-10-17T04:45:23;101075.72;;;9.54;78.57
63405;BME280;49541;57.840;12.306;2022-10-17T04:50:23;101078.47;;;9.52;78.23
63405;BME280;49541;57.840;12.306;2022-10-17T04:55:24;101082.84;;;9.29;80.35
63405;BME280;49541;57.840;12.306;2022-10-17T05:00:24;101095.16;;;9.30;80.92
63405;BME280;49541;57.840;12.306;2022-10-17T05:05:24;101112.44;;;9.12;81.47
63405;BME280;49541;57.840;12.306;2022-10-17T05:10:28;101098.63;;;8.82;81.22
63405;BME280;49541;57.840;12.306;2022-10-17T05:15:28;101112.63;;;9.21;79.66
63405;BME280;49541;57.840;12.306;2022-10-17T05:20:29;101113.53;;;8.96;78.91
63405;BME280;49541;57.840;12.306;2022-10-17T05:25:29;101115.31;;;8.72;79.68
63405;BME280;49541;57.840;12.306;2022-10-17T05:30:29;101100.56;;;8.55;78.81
63405;BME280;49541;57.840;12.306;2022-10-17T05:35:29;101109.50;;;8.41;79.41
63405;BME280;49541;57.840;12.306;2022-10-17T05:40:30;101114.91;;;8.65;77.88
63405;BME280;49541;57.840;12.306;2022-10-17T05:45:30;101121.47;;;8.59;77.60
63405;BME280;49541;57.840;12.306;2022-10-17T05:50:30;101126.47;;;8.51;77.35
63405;BME280;49541;57.840;12.306;2022-10-17T05:55:31;101131.00;;;8.62;76.56
63405;BME280;49541;57.840;12.306;2022-10-17T06:00:31;101132.72;;;8.50;75.88
63405;BME280;49541;57.840;12.306;2022-10-17T06:05:33;101136.94;;;8.40;75.92
63405;BME280;49541;57.840;12.306;2022-10-17T06:10:34;101144.47;;;8.33;75.62
63405;BME280;49541;57.840;12.306;2022-10-17T06:15:34;101144.88;;;8.27;75.55
63405;BME280;49541;57.840;12.306;2022-10-17T06:20:34;101138.19;;;8.21;75.65
63405;BME280;49541;57.840;12.306;2022-10-17T06:25:34;101140.63;;;8.12;75.89
63405;BME280;49541;57.840;12.306;2022-10-17T06:30:36;101152.19;;;8.24;75.56
63405;BME280;49541;57.840;12.306;2022-10-17T06:35:36;101152.75;;;8.16;75.67
63405;BME280;49541;57.840;12.306;2022-10-17T06:40:37;101166.63;;;8.32;75.61
63405;BME280;49541;57.840;12.306;2022-10-17T06:45:40;101169.88;;;8.50;74.94
63405;BME280;49541;57.840;12.306;2022-10-17T06:50:40;101161.22;;;8.34;75.43
63405;BME280;49541;57.840;12.306;2022-10-17T06:55:40;101151.50;;;8.47;75.62
63405;BME280;49541;57.840;12.306;2022-10-17T07:00:41;101181.44;;;8.49;76.16
63405;BME280;49541;57.840;12.306;2022-10-17T07:05:42;101184.31;;;8.46;76.86
63405;BME280;49541;57.840;12.306;2022-10-17T07:10:42;101185.66;;;8.39;77.58
63405;BME280;49541;57.840;12.306;2022-10-17T07:15:42;101190.00;;;8.40;77.85
63405;BME280;49541;57.840;12.306;2022-10-17T07:20:42;101195.13;;;8.43;78.81
63405;BME280;49541;57.840;12.306;2022-10-17T07:25:43;101192.28;;;8.46;79.46
63405;BME280;49541;57.840;12.306;2022-10-17T07:30:43;101206.63;;;8.56;79.27
63405;BME280;49541;57.840;12.306;2022-10-17T07:35:44;101217.44;;;8.66;80.04
63405;BME280;49541;57.840;12.306;2022-10-17T07:40:44;101229.56;;;8.83;80.22
63405;BME280;49541;57.840;12.306;2022-10-17T07:45:45;101228.31;;;8.76;82.89
63405;BME280;49541;57.840;12.306;2022-10-17T07:50:46;101240.59;;;9.28;83.81
63405;BME280;49541;57.840;12.306;2022-10-17T07:55:46;101245.03;;;10.50;81.26
63405;BME280;49541;57.840;12.306;2022-10-17T08:00:48;101252.22;;;10.72;81.45
63405;BME280;49541;57.840;12.306;2022-10-17T08:05:49;101248.50;;;11.19;79.63
63405;BME280;49541;57.840;12.306;2022-10-17T08:10:50;101241.69;;;11.38;80.28
63405;BME280;49541;57.840;12.306;2022-10-17T08:15:50;101230.53;;;11.44;80.44
63405;BME280;49541;57.840;12.306;2022-10-17T08:20:50;101223.69;;;11.19;81.96
63405;BME280;49541;57.840;12.306;2022-10-17T08:25:50;101227.88;;;11.55;79.98
63405;BME280;49541;57.840;12.306;2022-10-17T08:30:51;101218.56;;;11.27;80.65
63405;BME280;49541;57.840;12.306;2022-10-17T08:35:51;101229.31;;;11.48;80.80
63405;BME280;49541;57.840;12.306;2022-10-17T08:40:51;101236.72;;;11.33;82.18
63405;BME280;49541;57.840;12.306;2022-10-17T08:45:56;101226.06;;;11.33;82.78
63405;BME280;49541;57.840;12.306;2022-10-17T08:51:05;101223.75;;;11.40;83.04
63405;BME280;49541;57.840;12.306;2022-10-17T09:01:35;101212.94;;;11.53;83.00
63405;BME280;49541;57.840;12.306;2022-10-17T09:12:12;101222.25;;;11.81;82.66
63405;BME280;49541;57.840;12.306;2022-10-17T09:17:17;101235.94;;;11.76;83.61
63405;BME280;49541;57.840;12.306;2022-10-17T09:22:20;101225.47;;;11.96;81.97
63405;BME280;49541;57.840;12.306;2022-10-17T09:27:23;101227.44;;;12.47;80.40
63405;BME280;49541;57.840;12.306;2022-10-17T09:32:24;101210.97;;;12.42;80.53
63405;BME280;49541;57.840;12.306;2022-10-17T09:37:27;101215.19;;;12.23;80.92
63405;BME280;49541;57.840;12.306;2022-10-17T09:42:29;101210.66;;;12.56;78.79
63405;BME280;49541;57.840;12.306;2022-10-17T09:47:46;101197.41;;;12.34;80.70
63405;BME280;49541;57.840;12.306;2022-10-17T09:52:49;101177.44;;;12.07;82.82
63405;BME280;49541;57.840;12.306;2022-10-17T09:57:53;101185.06;;;12.33;82.19
63405;BME280;49541;57.840;12.306;2022-10-17T10:08:30;101180.38;;;13.07;76.56
63405;BME280;49541;57.840;12.306;2022-10-17T10:13:32;101155.25;;;12.58;78.47
63405;BME280;49541;57.840;12.306;2022-10-17T10:18:33;101137.06;;;12.73;79.21
63405;BME280;49541;57.840;12.306;2022-10-17T10:23:35;101150.06;;;13.28;76.13
63405;BME280;49541;57.840;12.306;2022-10-17T10:28:39;101154.66;;;13.16;77.21
63405;BME280;49541;57.840;12.306;2022-10-17T10:33:41;101146.72;;;12.95;77.99
63405;BME280;49541;57.840;12.306;2022-10-17T10:38:49;101145.31;;;13.41;76.73
63405;BME280;49541;57.840;12.306;2022-10-17T10:43:51;101159.72;;;13.60;76.34
63405;BME280;49541;57.840;12.306;2022-10-17T10:48:56;101140.44;;;13.56;75.89
63405;BME280;49541;57.840;12.306;2022-10-17T10:54:01;101132.84;;;13.11;77.73
63405;BME280;49541;57.840;12.306;2022-10-17T10:59:16;101123.94;;;13.31;76.72
63405;BME280;49541;57.840;12.306;2022-10-17T11:09:44;101131.41;;;13.86;74.40
63405;BME280;49541;57.840;12.306;2022-10-17T11:30:11;101096.94;;;13.64;74.75
63405;BME280;49541;57.840;12.306;2022-10-17T11:35:18;101086.06;;;13.36;74.97
63405;BME280;49541;57.840;12.306;2022-10-17T11:40:26;101073.69;;;12.95;76.79
63405;BME280;49541;57.840;12.306;2022-10-17T11:45:30;101062.94;;;13.25;76.75
63405;BME280;49541;57.840;12.306;2022-10-17T11:50:34;101038.16;;;13.14;76.73
63405;BME280;49541;57.840;12.306;2022-10-17T11:55:34;101037.66;;;13.29;75.84
63405;BME280;49541;57.840;12.306;2022-10-17T12:00:41;101038.56;;;13.09;76.72
63405;BME280;49541;57.840;12.306;2022-10-17T12:10:57;101024.38;;;13.08;76.42
63405;BME280;49541;57.840;12.306;2022-10-17T12:21:17;101010.97;;;12.99;77.53
63405;BME280;49541;57.840;12.306;2022-10-17T12:26:24;101003.16;;;13.36;75.95
63405;BME280;49541;57.840;12.306;2022-10-17T12:31:25;101000.94;;;13.31;76.69
63405;BME280;49541;57.840;12.306;2022-10-17T12:57:12;100925.44;;;13.18;77.92
63405;BME280;49541;57.840;12.306;2022-10-17T13:02:18;100926.88;;;13.32;77.36
63405;BME280;49541;57.840;12.306;2022-10-17T13:07:20;100925.44;;;13.18;77.95
63405;BME280;49541;57.840;12.306;2022-10-17T13:12:21;100894.38;;;13.07;77.52
63405;BME280;49541;57.840;12.306;2022-10-17T13:22:24;100840.94;;;12.68;79.35
63405;BME280;49541;57.840;12.306;2022-10-17T13:27:29;100821.09;;;12.71;80.12
63405;BME280;49541;57.840;12.306;2022-10-17T13:32:37;100806.22;;;12.49;80.28
63405;BME280;49541;57.840;12.306;2022-10-17T13:37:40;100789.94;;;12.52;80.57
63405;BME280;49541;57.840;12.306;2022-10-17T13:42:41;100763.50;;;12.59;80.54
63405;BME280;49541;57.840;12.306;2022-10-17T13:47:42;100742.56;;;12.54;80.89
63405;BME280;49541;57.840;12.306;2022-10-17T13:52:42;100737.91;;;12.76;79.18
63405;BME280;49541;57.840;12.306;2022-10-17T13:57:42;100730.91;;;12.45;80.22
63405;BME280;49541;57.840;12.306;2022-10-17T14:02:43;100715.44;;;12.39;79.97
63405;BME280;49541;57.840;12.306;2022-10-17T14:07:50;100740.03;;;12.33;80.66
63405;BME280;49541;57.840;12.306;2022-10-17T14:12:51;100744.69;;;12.31;81.16
63405;BME280;49541;57.840;12.306;2022-10-17T14:17:56;100761.81;;;12.48;81.15
63405;BME280;49541;57.840;12.306;2022-10-17T14:22:58;100772.91;;;12.53;79.86
63405;BME280;49541;57.840;12.306;2022-10-17T14:28:06;100760.13;;;12.27;80.75
63405;BME280;49541;57.840;12.306;2022-10-17T14:33:14;100745.78;;;12.09;80.87
63405;BME280;49541;57.840;12.306;2022-10-17T14:38:14;100745.59;;;12.79;78.86
63405;BME280;49541;57.840;12.306;2022-10-17T14:43:20;100739.25;;;12.80;78.93
63405;BME280;49541;57.840;12.306;2022-10-17T14:48:21;100738.75;;;12.57;80.61
63405;BME280;49541;57.840;12.306;2022-10-17T14:53:23;100750.41;;;12.56;80.84
63405;BME280;49541;57.840;12.306;2022-10-17T14:58:24;100760.41;;;12.44;81.89
63405;BME280;49541;57.840;12.306;2022-10-17T15:03:25;100751.25;;;12.76;80.38
63405;BME280;49541;57.840;12.306;2022-10-17T15:08:25;100746.19;;;12.82;80.45
63405;BME280;49541;57.840;12.306;2022-10-17T15:13:25;100757.28;;;12.58;81.64
63405;BME280;49541;57.840;12.306;2022-10-17T15:18:25;100761.53;;;12.51;82.52
63405;BME280;49541;57.840;12.306;2022-10-17T15:23:26;100714.19;;;12.14;82.77
63405;BME280;49541;57.840;12.306;2022-10-17T15:28:26;100706.47;;;12.11;83.40
63405;BME280;49541;57.840;12.306;2022-10-17T15:33:26;100725.25;;;12.68;82.36
63405;BME280;49541;57.840;12.306;2022-10-17T15:38:26;100709.66;;;12.63;82.81
63405;BME280;49541;57.840;12.306;2022-10-17T15:43:27;100686.66;;;12.33;83.29
63405;BME280;49541;57.840;12.306;2022-10-17T15:48:28;100676.53;;;12.94;82.56
63405;BME280;49541;57.840;12.306;2022-10-17T15:53:29;100671.81;;;12.68;83.69
63405;BME280;49541;57.840;12.306;2022-10-17T15:58:37;100667.81;;;12.82;82.78
63405;BME280;49541;57.840;12.306;2022-10-17T16:03:39;100657.81;;;12.56;84.60
63405;BME280;49541;57.840;12.306;2022-10-17T16:08:39;100647.00;;;12.95;84.22
63405;BME280;49541;57.840;12.306;2022-10-17T16:13:39;100642.13;;;12.81;85.29
63405;BME280;49541;57.840;12.306;2022-10-17T16:18:41;100641.41;;;13.44;82.88
63405;BME280;49541;57.840;12.306;2022-10-17T16:23:41;100626.38;;;13.05;84.42
63405;BME280;49541;57.840;12.306;2022-10-17T16:28:42;100613.84;;;13.43;83.72
63405;BME280;49541;57.840;12.306;2022-10-17T16:33:42;100618.75;;;13.66;82.43
63405;BME280;49541;57.840;12.306;2022-10-17T16:38:43;100602.91;;;13.27;83.72
63405;BME280;49541;57.840;12.306;2022-10-17T16:43:43;100614.56;;;13.36;85.63
63405;BME280;49541;57.840;12.306;2022-10-17T16:48:44;100610.50;;;13.77;83.61
63405;BME280;49541;57.840;12.306;2022-10-17T16:53:45;100602.91;;;13.27;85.29
63405;BME280;49541;57.840;12.306;2022-10-17T16:58:45;100601.38;;;13.88;84.29
63405;BME280;49541;57.840;12.306;2022-10-17T17:03:46;100594.97;;;13.63;84.82
63405;BME280;49541;57.840;12.306;2022-10-17T17:08:46;100593.03;;;13.91;85.34
63405;BME280;49541;57.840;12.306;2022-10-17T17:13:47;100607.50;;;13.80;84.66
63405;BME280;49541;57.840;12.306;2022-10-17T17:18:47;100600.41;;;13.71;86.06
63405;BME280;49541;57.840;12.306;2022-10-17T17:23:50;100591.13;;;13.65;86.79
63405;BME280;49541;57.840;12.306;2022-10-17T17:28:50;100600.47;;;13.97;86.26
63405;BME280;49541;57.840;12.306;2022-10-17T17:33:52;100602.53;;;13.85;86.91
63405;BME280;49541;57.840;12.306;2022-10-17T17:38:53;100589.09;;;13.77;86.88
63405;BME280;49541;57.840;12.306;2022-10-17T17:43:54;100589.59;;;13.99;87.00
63405;BME280;49541;57.840;12.306;2022-10-17T17:48:55;100592.09;;;14.00;88.29
63405;BME280;49541;57.840;12.306;2022-10-17T17:53:55;100588.09;;;14.22;88.05
63405;BME280;49541;57.840;12.306;2022-10-17T17:58:57;100586.88;;;14.17;89.36
63405;BME280;49541;57.840;12.306;2022-10-17T18:03:58;100586.72;;;14.44;88.91
63405;BME280;49541;57.840;12.306;2022-10-17T18:08:58;100587.28;;;14.48;92.83
63405;BME280;49541;57.840;12.306;2022-10-17T18:14:00;100601.22;;;14.33;96.74
63405;BME280;49541;57.840;12.306;2022-10-17T18:19:04;100619.69;;;14.19;99.30
63405;BME280;49541;57.840;12.306;2022-10-17T18:24:05;100605.84;;;14.23;100.00
63405;BME280;49541;57.840;12.306;2022-10-17T18:29:05;100609.53;;;14.22;100.00
63405;BME280;49541;57.840;12.306;2022-10-17T18:34:06;100618.66;;;14.11;100.00
63405;BME280;49541;57.840;12.306;2022-10-17T18:39:06;100617.78;;;14.11;100.00
63405;BME280;49541;57.840;12.306;2022-10-17T18:44:06;100625.38;;;14.16;100.00
63405;BME280;49541;57.840;12.306;2022-10-17T18:49:11;100620.75;;;14.26;100.00
63405;BME280;49541;57.840;12.306;2022-10-17T18:54:13;100635.03;;;14.34;100.00
63405;BME280;49541;57.840;12.306;2022-10-17T18:59:13;100623.81;;;14.31;100.00
63405;BME280;49541;57.840;12.306;2022-10-17T19:04:14;100623.06;;;14.47;100.00
63405;BME280;49541;57.840;12.306;2022-10-17T19:09:14;100635.47;;;14.48;100.00
63405;BME280;49541;57.840;12.306;2022-10-17T19:14:15;100635.16;;;14.51;100.00
63405;BME280;49541;57.840;12.306;2022-10-17T19:24:17;100646.94;;;14.58;99.95
63405;BME280;49541;57.840;12.306;2022-10-17T19:29:18;100648.63;;;14.59;99.08
63405;BME280;49541;57.840;12.306;2022-10-17T19:34:19;100649.31;;;14.61;99.01
63405;BME280;49541;57.840;12.306;2022-10-17T19:39:19;100657.66;;;14.58;98.78
63405;BME280;49541;57.840;12.306;2022-10-17T19:44:21;100661.72;;;14.62;98.62
63405;BME280;49541;57.840;12.306;2022-10-17T19:49:22;100660.09;;;14.69;98.69
63405;BME280;49541;57.840;12.306;2022-10-17T19:54:22;100667.50;;;14.76;98.72
63405;BME280;49541;57.840;12.306;2022-10-17T19:59:22;100669.28;;;14.49;100.00
63405;BME280;49541;57.840;12.306;2022-10-17T20:04:22;100669.28;;;14.49;99.96
63405;BME280;49541;57.840;12.306;2022-10-17T20:09:23;100679.72;;;14.52;100.00
63405;BME280;49541;57.840;12.306;2022-10-17T20:14:24;100680.72;;;14.33;100.00
63405;BME280;49541;57.840;12.306;2022-10-17T20:19:24;100706.34;;;14.36;99.99
63405;BME280;49541;57.840;12.306;2022-10-17T20:24:24;100696.94;;;14.31;100.00
63405;BME280;49541;57.840;12.306;2022-10-17T20:29:24;100690.84;;;14.39;99.17
63405;BME280;49541;57.840;12.306;2022-10-17T20:34:26;100707.81;;;14.30;99.79
63405;BME280;49541;57.840;12.306;2022-10-17T20:39:27;100718.22;;;14.33;98.20
63405;BME280;49541;57.840;12.306;2022-10-17T20:44:27;100719.38;;;14.30;97.89
63405;BME280;49541;57.840;12.306;2022-10-17T20:49:27;100708.88;;;14.19;97.48
63405;BME280;49541;57.840;12.306;2022-10-17T20:54:28;100712.25;;;14.03;95.87
63405;BME280;49541;57.840;12.306;2022-10-17T20:59:28;100740.88;;;14.03;96.46
63405;BME280;49541;57.840;12.306;2022-10-17T21:04:29;100744.94;;;14.07;95.03
63405;BME280;49541;57.840;12.306;2022-10-17T21:09:29;100782.56;;;13.78;95.66
63405;BME280;49541;57.840;12.306;2022-10-17T21:14:29;100758.69;;;13.66;97.06
63405;BME280;49541;57.840;12.306;2022-10-17T21:19:30;100771.31;;;13.74;96.31
63405;BME280;49541;57.840;12.306;2022-10-17T21:24:30;100766.72;;;13.94;94.58
63405;BME280;49541;57.840;12.306;2022-10-17T21:29:30;100788.25;;;13.75;94.38
63405;BME280;49541;57.840;12.306;2022-10-17T21:34:30;100781.19;;;13.73;94.28
63405;BME280;49541;57.840;12.306;2022-10-17T21:39:31;100818.00;;;13.62;93.68
63405;BME280;49541;57.840;12.306;2022-10-17T21:44:31;100794.72;;;13.44;93.98
63405;BME280;49541;57.840;12.306;2022-10-17T21:49:31;100794.25;;;13.49;92.13
63405;BME280;49541;57.840;12.306;2022-10-17T21:54:32;100795.38;;;13.46;92.66
63405;BME280;49541;57.840;12.306;2022-10-17T21:59:33;100792.81;;;13.55;93.00
63405;BME280;49541;57.840;12.306;2022-10-17T22:04:34;100812.16;;;13.76;92.25
63405;BME280;49541;57.840;12.306;2022-10-17T22:09:34;100827.81;;;13.71;91.71
63405;BME280;49541;57.840;12.306;2022-10-17T22:14:34;100816.06;;;13.82;91.22
63405;BME280;49541;57.840;12.306;2022-10-17T22:19:35;100828.59;;;13.54;91.12
63405;BME280;49541;57.840;12.306;2022-10-17T22:24:35;100830.81;;;13.58;91.19
63405;BME280;49541;57.840;12.306;2022-10-17T22:29:35;100842.84;;;13.44;92.06
63405;BME280;49541;57.840;12.306;2022-10-17T22:34:35;100839.28;;;13.54;91.53
63405;BME280;49541;57.840;12.306;2022-10-17T22:39:35;100838.50;;;13.34;89.95
63405;BME280;49541;57.840;12.306;2022-10-17T22:44:37;100830.06;;;13.19;89.56
63405;BME280;49541;57.840;12.306;2022-10-17T22:49:37;100841.31;;;13.22;89.60
63405;BME280;49541;57.840;12.306;2022-10-17T22:54:37;100837.34;;;13.26;88.79
63405;BME280;49541;57.840;12.306;2022-10-17T22:59:38;100848.91;;;13.37;87.26
63405;BME280;49541;57.840;12.306;2022-10-17T23:04:38;100845.78;;;13.41;86.77
63405;BME280;49541;57.840;12.306;2022-10-17T23:09:39;100855.94;;;13.18;87.66
63405;BME280;49541;57.840;12.306;2022-10-17T23:14:40;100863.00;;;13.09;88.29
63405;BME280;49541;57.840;12.306;2022-10-17T23:19:42;100858.22;;;13.23;89.07
63405;BME280;49541;57.840;12.306;2022-10-17T23:24:42;100863.28;;;13.06;90.08
63405;BME280;49541;57.840;12.306;2022-10-17T23:29:42;100856.09;;;13.17;90.17
63405;BME280;49541;57.840;12.306;2022-10-17T23:34:43;100860.44;;;13.18;90.14
63405;BME280;49541;57.840;12.306;2022-10-17T23:39:43;100860.00;;;13.42;89.01
63405;BME280;49541;57.840;12.306;2022-10-17T23:44:43;100849.34;;;13.13;88.91
63405;BME280;49541;57.840;12.306;2022-10-17T23:49:43;100861.59;;;13.05;90.01
63405;BME280;49541;57.840;12.306;2022-10-17T23:54:43;100859.34;;;13.30;89.70
63405;BME280;49541;57.840;12.306;2022-10-17T23:59:44;100878.59;;;13.43;89.07
